createdAt,value
2023-01-20T00:01:27.165Z,7.23
2023-01-20T00:03:56.641Z,7.13
2023-01-20T00:06:27.733Z,8.10
2023-01-20T00:09:15.823Z,7.00
2023-01-20T00:11:45.705Z,7.43
2023-01-20T00:14:14.313Z,7.27
2023-01-20T00:16:42.298Z,7.00
2023-01-20T00:19:12.391Z,7.20
2023-01-20T00:21:40.223Z,7.47
2023-01-20T00:24:08.497Z,7.93
2023-01-20T00:26:36.420Z,7.87
2023-01-20T00:29:05.654Z,8.50
2023-01-20T00:31:34.693Z,8.20
2023-01-20T00:34:03.097Z,8.17
2023-01-20T00:36:32.942Z,7.03
2023-01-20T00:39:02.415Z,7.77
2023-01-20T00:41:30.312Z,7.23
2023-01-20T00:43:58.242Z,7.13
2023-01-20T00:46:27.899Z,7.27
2023-01-20T00:48:56.097Z,7.40
2023-01-20T00:51:24.086Z,8.63
2023-01-20T00:53:51.925Z,7.90
2023-01-20T00:56:19.880Z,7.33
2023-01-20T00:58:47.862Z,7.63
2023-01-20T01:01:16.066Z,8.23
2023-01-20T01:03:45.391Z,8.53
2023-01-20T01:06:16.395Z,8.73
2023-01-20T01:08:45.156Z,7.93
2023-01-20T01:11:13.924Z,8.23
2023-01-20T01:13:42.190Z,8.33
2023-01-20T01:16:13.112Z,8.07
2023-01-20T01:18:41.517Z,8.50
2023-01-20T01:21:12.837Z,8.17
2023-01-20T01:23:40.823Z,8.27
2023-01-20T01:26:08.823Z,7.90
2023-01-20T01:28:36.827Z,9.17
2023-01-20T01:31:06.133Z,8.57
2023-01-20T01:33:34.939Z,7.50
2023-01-20T01:36:04.381Z,7.87
2023-01-20T01:38:33.728Z,8.07
2023-01-20T01:41:02.531Z,8.77
2023-01-20T01:43:32.510Z,7.30
2023-01-20T01:46:00.678Z,7.60
2023-01-20T01:48:32.499Z,8.20
2023-01-20T01:51:04.163Z,8.23
2023-01-20T01:53:40.285Z,7.50
2023-01-20T01:56:09.268Z,7.50
2023-01-20T01:58:39.726Z,8.03
2023-01-20T02:01:07.843Z,7.67
2023-01-20T02:03:42.830Z,8.10
2023-01-20T02:06:12.531Z,8.10
2023-01-20T02:08:43.195Z,8.20
2023-01-20T02:11:11.056Z,8.00
2023-01-20T02:13:39.359Z,8.33
2023-01-20T02:16:15.399Z,8.67
2023-01-20T02:18:55.168Z,8.60
2023-01-20T02:21:53.855Z,9.00
2023-01-20T02:25:04.584Z,8.03
2023-01-20T02:27:52.568Z,8.60
2023-01-20T02:30:47.737Z,8.90
2023-01-20T02:33:22.902Z,9.37
2023-01-20T02:35:54.353Z,8.80
2023-01-20T02:38:29.006Z,8.63
2023-01-20T02:41:03.155Z,9.97
2023-01-20T02:43:37.220Z,10.13
2023-01-20T02:46:11.144Z,9.10
2023-01-20T02:48:45.121Z,9.43
2023-01-20T02:51:18.389Z,8.70
2023-01-20T02:53:50.343Z,10.13
2023-01-20T02:56:20.285Z,9.50
2023-01-20T02:58:51.272Z,9.40
2023-01-20T03:01:26.310Z,10.43
2023-01-20T03:03:59.307Z,9.40
2023-01-20T03:06:31.534Z,9.67
2023-01-20T03:09:01.886Z,9.40
2023-01-20T03:11:36.158Z,9.70
2023-01-20T03:14:09.387Z,10.23
2023-01-20T03:16:37.741Z,10.67
2023-01-20T03:19:07.406Z,9.37
2023-01-20T03:21:36.171Z,10.60
2023-01-20T03:24:06.136Z,9.60
2023-01-20T03:26:34.635Z,10.97
2023-01-20T03:29:06.090Z,10.10
2023-01-20T03:31:37.586Z,9.77
2023-01-20T03:34:12.674Z,9.30
2023-01-20T03:36:42.260Z,10.40
2023-01-20T03:39:10.666Z,10.37
2023-01-20T03:41:45.867Z,9.70
2023-01-20T03:44:20.484Z,10.67
2023-01-20T03:46:53.946Z,9.37
2023-01-20T03:49:30.881Z,10.47
2023-01-20T03:52:04.834Z,9.63
2023-01-20T03:54:38.540Z,9.90
2023-01-20T03:57:12.147Z,10.33
2023-01-20T03:59:44.392Z,10.47
2023-01-20T04:02:13.243Z,11.17
2023-01-20T04:04:45.272Z,10.30
2023-01-20T04:07:19.718Z,11.10
2023-01-20T04:09:52.222Z,9.77
2023-01-20T04:12:20.373Z,9.90
2023-01-20T04:14:48.275Z,11.33
2023-01-20T04:17:16.727Z,11.50
2023-01-20T04:19:46.130Z,12.70
2023-01-20T04:22:18.965Z,11.97
2023-01-20T04:24:52.197Z,10.73
2023-01-20T04:27:20.168Z,12.20
2023-01-20T04:29:48.103Z,12.70
2023-01-20T04:32:18.388Z,11.70
2023-01-20T04:34:47.617Z,13.20
2023-01-20T04:37:15.632Z,12.30
2023-01-20T04:39:43.584Z,13.30
2023-01-20T04:42:11.613Z,12.20
2023-01-20T04:44:39.937Z,11.70
2023-01-20T04:47:07.934Z,12.43
2023-01-20T04:49:36.068Z,13.17
2023-01-20T04:52:05.623Z,12.90
2023-01-20T04:54:33.679Z,13.60
2023-01-20T04:57:01.534Z,13.60
2023-01-20T04:59:29.424Z,13.60
2023-01-20T05:01:57.390Z,14.47
2023-01-20T05:04:25.440Z,14.03
2023-01-20T05:06:53.312Z,14.03
2023-01-20T05:09:22.685Z,13.33
2023-01-20T05:11:50.577Z,13.20
2023-01-20T05:14:18.438Z,15.10
2023-01-20T05:16:47.060Z,14.83
2023-01-20T05:19:15.007Z,14.10
2023-01-20T05:21:43.209Z,12.83
2023-01-20T05:24:11.358Z,13.10
2023-01-20T05:26:40.615Z,14.73
2023-01-20T05:29:09.220Z,14.67
2023-01-20T05:31:38.690Z,15.10
2023-01-20T05:34:06.578Z,15.20
2023-01-20T05:36:34.479Z,14.77
2023-01-20T05:39:02.455Z,13.57
2023-01-20T05:41:30.369Z,13.10
2023-01-20T05:43:59.604Z,15.73
2023-01-20T05:46:27.481Z,15.53
2023-01-20T05:48:55.523Z,13.97
2023-01-20T05:51:23.769Z,15.60
2023-01-20T05:53:51.636Z,14.47
2023-01-20T05:56:19.449Z,14.90
2023-01-20T05:58:47.411Z,16.10
2023-01-20T06:01:16.711Z,15.30
2023-01-20T06:03:44.664Z,17.10
2023-01-20T06:06:15.756Z,16.63
2023-01-20T06:08:43.987Z,15.57
2023-01-20T06:11:11.922Z,15.63
2023-01-20T06:13:40.275Z,14.60
2023-01-20T06:16:08.684Z,14.63
2023-01-20T06:18:38.132Z,15.30
2023-01-20T06:21:06.425Z,15.77
2023-01-20T06:23:34.384Z,14.40
2023-01-20T06:26:03.820Z,15.90
2023-01-20T06:28:33.003Z,14.50
2023-01-20T06:31:02.351Z,14.70
2023-01-20T06:33:30.763Z,16.23
2023-01-20T06:36:00.602Z,16.10
2023-01-20T06:38:31.446Z,16.03
2023-01-20T06:41:00.420Z,16.23
2023-01-20T06:43:29.471Z,16.83
2023-01-20T06:46:00.895Z,16.13
2023-01-20T06:48:29.409Z,16.33
2023-01-20T06:51:03.326Z,16.77
2023-01-20T06:53:31.589Z,14.90
2023-01-20T06:56:01.319Z,16.43
2023-01-20T06:58:30.905Z,16.77
2023-01-20T07:01:00.107Z,17.20
2023-01-20T07:03:28.170Z,16.13
2023-01-20T07:05:59.641Z,15.80
2023-01-20T07:08:29.074Z,16.57
2023-01-20T07:10:57.495Z,16.87
2023-01-20T07:13:25.599Z,15.90
2023-01-20T07:15:54.202Z,17.20
2023-01-20T07:18:22.115Z,16.50
2023-01-20T07:20:55.266Z,16.67
2023-01-20T07:23:23.764Z,17.63
2023-01-20T07:26:00.564Z,15.87
2023-01-20T07:28:29.311Z,16.97
2023-01-20T07:30:57.630Z,19.17
2023-01-20T07:33:25.990Z,16.87
2023-01-20T07:35:55.277Z,17.60
2023-01-20T07:38:23.796Z,17.37
2023-01-20T07:40:52.137Z,17.47
2023-01-20T07:43:21.849Z,16.80
2023-01-20T07:45:50.072Z,17.33
2023-01-20T07:48:18.167Z,18.80
2023-01-20T07:50:46.258Z,16.80
2023-01-20T07:53:14.283Z,19.07
2023-01-20T07:55:42.409Z,17.60
2023-01-20T07:58:10.486Z,16.80
2023-01-20T08:00:39.886Z,19.10
2023-01-20T08:03:07.964Z,19.30
2023-01-20T08:05:36.103Z,17.30
2023-01-20T08:08:03.989Z,18.43
2023-01-20T08:10:32.152Z,18.53
2023-01-20T08:13:00.352Z,18.53
2023-01-20T08:15:28.356Z,16.73
2023-01-20T08:17:58.613Z,17.60
2023-01-20T08:20:26.904Z,17.20
2023-01-20T08:22:54.933Z,19.30
2023-01-20T08:25:23.527Z,18.37
2023-01-20T08:27:51.562Z,17.83
2023-01-20T08:30:20.239Z,17.57
2023-01-20T08:32:48.514Z,17.37
2023-01-20T08:35:17.998Z,16.80
2023-01-20T08:37:46.872Z,18.30
2023-01-20T08:40:15.393Z,19.10
2023-01-20T08:42:43.571Z,17.57
2023-01-20T08:45:12.506Z,16.57
2023-01-20T08:47:45.810Z,17.47
2023-01-20T08:50:15.625Z,18.00
2023-01-20T08:52:45.128Z,17.20
2023-01-20T08:55:13.475Z,18.03
2023-01-20T08:57:42.029Z,18.97
2023-01-20T09:00:14.565Z,17.20
2023-01-20T09:02:43.002Z,16.53
2023-01-20T09:05:12.071Z,15.80
2023-01-20T09:07:40.491Z,16.00
2023-01-20T09:10:11.345Z,16.23
2023-01-20T09:12:39.619Z,15.63
2023-01-20T09:15:09.227Z,16.40
2023-01-20T09:17:37.610Z,16.63
2023-01-20T09:20:06.394Z,17.40
2023-01-20T09:22:34.847Z,15.73
2023-01-20T09:25:03.556Z,16.13
2023-01-20T09:27:33.996Z,16.40
2023-01-20T09:30:02.283Z,16.40
2023-01-20T09:32:30.623Z,16.47
2023-01-20T09:34:58.975Z,17.53
2023-01-20T09:37:46.024Z,15.30
2023-01-20T09:40:36.926Z,14.37
2023-01-20T09:43:35.150Z,15.63
2023-01-20T09:46:10.266Z,15.53
2023-01-20T09:49:02.961Z,15.10
2023-01-20T09:51:56.867Z,14.90
2023-01-20T09:54:29.133Z,16.60
2023-01-20T09:57:01.063Z,15.57
2023-01-20T09:59:37.932Z,15.87
2023-01-20T10:02:10.201Z,15.37
2023-01-20T10:04:43.362Z,15.57
2023-01-20T10:07:16.001Z,16.03
2023-01-20T10:09:51.086Z,15.53
2023-01-20T10:12:24.021Z,16.87
2023-01-20T10:15:01.995Z,17.60
2023-01-20T10:17:33.529Z,15.37
2023-01-20T10:20:06.234Z,15.70
2023-01-20T10:22:41.644Z,14.60
2023-01-20T10:25:14.540Z,15.37
2023-01-20T10:27:51.442Z,14.90
2023-01-20T10:30:25.961Z,13.20
2023-01-20T10:32:59.754Z,14.20
2023-01-20T10:35:29.860Z,12.53
2023-01-20T10:37:59.099Z,13.63
2023-01-20T10:40:35.674Z,14.50
2023-01-20T10:43:12.624Z,14.63
2023-01-20T10:46:05.373Z,13.80
2023-01-20T10:48:54.694Z,14.23
2023-01-20T10:51:31.193Z,14.47
2023-01-20T10:54:07.152Z,13.43
2023-01-20T10:56:44.027Z,13.57
2023-01-20T10:59:16.964Z,12.80
2023-01-20T11:01:59.261Z,13.30
2023-01-20T11:04:36.113Z,10.30
2023-01-20T11:07:08.627Z,11.47
2023-01-20T11:09:38.822Z,10.83
2023-01-20T11:12:14.703Z,9.10
2023-01-20T11:14:43.560Z,10.57
2023-01-20T11:17:17.219Z,10.20
2023-01-20T11:19:53.252Z,10.13
2023-01-20T11:22:29.347Z,9.80
2023-01-20T11:24:59.813Z,10.00
2023-01-20T11:27:33.240Z,9.10
2023-01-20T11:30:05.480Z,9.47
2023-01-20T11:32:37.595Z,9.23
2023-01-20T11:35:22.869Z,11.13
2023-01-20T11:37:51.481Z,9.43
2023-01-20T11:40:23.258Z,9.67
2023-01-20T11:42:53.479Z,9.57
2023-01-20T11:45:32.742Z,9.00
2023-01-20T11:48:07.991Z,9.17
2023-01-20T11:50:41.007Z,9.27
2023-01-20T11:53:31.779Z,10.20
2023-01-20T11:56:02.150Z,8.70
2023-01-20T11:58:34.455Z,9.37
2023-01-20T12:01:05.812Z,9.37
2023-01-20T12:04:11.547Z,10.20
2023-01-20T12:06:49.032Z,10.07
2023-01-20T12:09:22.304Z,8.90
2023-01-20T12:12:11.596Z,10.53
2023-01-20T12:14:47.883Z,9.30
2023-01-20T12:17:34.078Z,9.50
2023-01-20T12:20:12.378Z,8.50
2023-01-20T12:22:47.597Z,8.77
2023-01-20T12:25:22.220Z,7.90
2023-01-20T12:27:54.313Z,9.20
2023-01-20T12:30:47.652Z,9.43
2023-01-20T12:33:22.662Z,8.30
2023-01-20T12:36:33.216Z,8.40
2023-01-20T12:39:25.056Z,8.70
2023-01-20T12:42:13.730Z,8.57
2023-01-20T12:44:47.463Z,7.70
2023-01-20T12:47:29.292Z,8.57
2023-01-20T12:50:15.144Z,8.07
2023-01-20T12:52:55.929Z,7.47
2023-01-20T12:55:33.358Z,6.90
2023-01-20T12:58:10.170Z,7.30
2023-01-20T13:01:04.188Z,8.03
2023-01-20T13:03:51.380Z,8.73
2023-01-20T13:06:53.999Z,8.30
2023-01-20T13:09:42.494Z,9.77
2023-01-20T13:12:38.567Z,8.63
2023-01-20T13:15:18.434Z,10.03
2023-01-20T13:18:06.506Z,9.70
2023-01-20T13:20:36.480Z,9.67
2023-01-20T13:23:07.004Z,10.60
2023-01-20T13:25:36.920Z,10.40
2023-01-20T13:28:07.972Z,11.70
2023-01-20T13:30:43.104Z,10.57
2023-01-20T13:33:27.529Z,9.20
2023-01-20T13:35:56.433Z,9.10
2023-01-20T13:38:27.933Z,9.90
2023-01-20T13:41:03.152Z,10.10
2023-01-20T13:43:48.013Z,9.80
2023-01-20T13:46:39.686Z,10.60
2023-01-20T13:49:36.639Z,9.77
2023-01-20T13:52:05.311Z,10.20
2023-01-20T13:54:43.775Z,10.40
2023-01-20T13:57:46.464Z,10.37
2023-01-20T14:00:19.883Z,10.73
2023-01-20T14:02:50.685Z,10.30
2023-01-20T14:05:32.295Z,10.10
2023-01-20T14:08:00.908Z,10.10
2023-01-20T14:10:30.474Z,9.33
2023-01-20T14:13:00.092Z,10.40
2023-01-20T14:15:38.263Z,10.50
2023-01-20T14:18:19.213Z,11.70
2023-01-20T14:21:03.874Z,10.43
2023-01-20T14:23:38.454Z,10.47
2023-01-20T14:26:13.259Z,11.73
2023-01-20T14:28:50.954Z,10.50
2023-01-20T14:31:35.454Z,10.73
2023-01-20T14:34:27.326Z,9.03
2023-01-20T14:36:58.273Z,10.90
2023-01-20T14:39:28.236Z,10.63
2023-01-20T14:41:57.708Z,8.30
2023-01-20T14:44:29.632Z,8.13
2023-01-20T14:46:59.572Z,8.77
2023-01-20T14:49:33.688Z,7.93
2023-01-20T14:52:03.077Z,8.33
2023-01-20T14:54:37.045Z,8.60
2023-01-20T14:57:21.467Z,9.50
2023-01-20T15:00:06.479Z,8.53
2023-01-20T15:02:36.767Z,8.37
2023-01-20T15:05:27.778Z,8.77
2023-01-20T15:08:18.830Z,8.03
2023-01-20T15:10:47.174Z,9.67
2023-01-20T15:13:26.385Z,9.70
2023-01-20T15:16:08.012Z,9.10
2023-01-20T15:18:36.333Z,9.73
2023-01-20T15:21:23.558Z,10.87
2023-01-20T15:23:52.884Z,9.43
2023-01-20T15:26:27.611Z,10.90
2023-01-20T15:28:56.578Z,9.37
2023-01-20T15:31:26.512Z,10.00
2023-01-20T15:33:54.825Z,8.90
2023-01-20T15:36:27.680Z,9.80
2023-01-20T15:38:56.792Z,10.00
2023-01-20T15:41:25.334Z,11.07
2023-01-20T15:43:54.100Z,9.40
2023-01-20T15:46:22.312Z,11.77
2023-01-20T15:48:51.932Z,9.43
2023-01-20T15:51:21.328Z,11.47
2023-01-20T15:53:50.073Z,9.83
2023-01-20T15:56:21.905Z,11.20
2023-01-20T15:58:51.482Z,11.00
2023-01-20T16:01:23.860Z,11.13
2023-01-20T16:03:55.053Z,11.47
2023-01-20T16:06:28.020Z,10.97
2023-01-20T16:08:56.705Z,11.63
2023-01-20T16:11:24.864Z,13.00
2023-01-20T16:13:53.737Z,11.80
2023-01-20T16:16:24.388Z,11.00
2023-01-20T16:18:54.242Z,11.17
2023-01-20T16:21:22.540Z,13.60
2023-01-20T16:23:50.687Z,12.53
2023-01-20T16:26:22.754Z,12.70
2023-01-20T16:28:51.498Z,12.77
2023-01-20T16:31:20.159Z,11.70
2023-01-20T16:33:48.568Z,12.57
2023-01-20T16:36:20.350Z,13.30
2023-01-20T16:38:49.950Z,14.20
2023-01-20T16:41:21.696Z,12.33
2023-01-20T16:43:50.573Z,14.40
2023-01-20T16:46:20.263Z,12.23
2023-01-20T16:48:48.841Z,13.70
2023-01-20T16:51:20.345Z,14.67
2023-01-20T16:53:48.810Z,14.90
2023-01-20T16:56:18.079Z,13.67
2023-01-20T16:58:48.734Z,12.30
2023-01-20T17:01:22.082Z,13.07
2023-01-20T17:03:51.687Z,13.20
2023-01-20T17:06:23.610Z,14.63
2023-01-20T17:08:53.817Z,14.20
2023-01-20T17:11:23.234Z,13.80
2023-01-20T17:13:51.649Z,13.13
2023-01-20T17:16:21.204Z,14.03
2023-01-20T17:18:50.601Z,14.07
2023-01-20T17:21:21.578Z,15.00
2023-01-20T17:23:52.450Z,15.43
2023-01-20T17:26:21.336Z,13.10
2023-01-20T17:28:49.623Z,13.80
2023-01-20T17:31:17.886Z,14.90
2023-01-20T17:33:47.407Z,16.20
2023-01-20T17:36:16.901Z,14.90
2023-01-20T17:38:46.665Z,14.93
2023-01-20T17:41:15.647Z,16.20
2023-01-20T17:43:46.245Z,13.83
2023-01-20T17:46:16.070Z,12.90
2023-01-20T17:48:44.809Z,13.83
2023-01-20T17:51:14.623Z,14.20
2023-01-20T17:53:43.481Z,13.77
2023-01-20T17:56:14.441Z,14.40
2023-01-20T17:58:43.482Z,15.30
2023-01-20T18:01:14.709Z,16.20
2023-01-20T18:03:44.356Z,16.03
2023-01-20T18:06:14.482Z,15.27
2023-01-20T18:08:43.237Z,17.80
2023-01-20T18:11:15.179Z,17.03
2023-01-20T18:13:46.358Z,15.67
2023-01-20T18:16:16.341Z,18.10
2023-01-20T18:18:45.487Z,19.13
2023-01-20T18:21:15.698Z,15.70
2023-01-20T18:23:45.085Z,16.43
2023-01-20T18:26:16.927Z,17.63
2023-01-20T18:28:47.885Z,16.83
2023-01-20T18:31:17.866Z,16.90
2023-01-20T18:33:48.188Z,16.10
2023-01-20T18:36:17.868Z,16.23
2023-01-20T18:38:50.951Z,17.70
2023-01-20T18:41:21.088Z,16.90
2023-01-20T18:43:49.397Z,18.60
2023-01-20T18:46:18.266Z,17.43
2023-01-20T18:48:48.977Z,17.80
2023-01-20T18:51:20.486Z,19.37
2023-01-20T18:53:54.913Z,17.47
2023-01-20T18:56:26.037Z,17.90
2023-01-20T18:58:55.482Z,19.30
2023-01-20T19:01:25.618Z,17.57
2023-01-20T19:03:55.361Z,18.43
2023-01-20T19:06:25.832Z,18.43
2023-01-20T19:08:54.222Z,19.60
2023-01-20T19:11:25.447Z,18.53
2023-01-20T19:13:54.462Z,20.10
2023-01-20T19:16:25.123Z,19.70
2023-01-20T19:18:55.189Z,18.87
2023-01-20T19:21:24.197Z,20.63
2023-01-20T19:23:53.670Z,19.23
2023-01-20T19:26:23.019Z,21.47
2023-01-20T19:28:58.340Z,20.73
2023-01-20T19:31:26.683Z,20.80
2023-01-20T19:33:54.878Z,21.33
2023-01-20T19:36:23.778Z,20.90
2023-01-20T19:38:52.848Z,19.83
2023-01-20T19:41:22.975Z,20.70
2023-01-20T19:43:57.221Z,21.17
2023-01-20T19:46:27.149Z,22.30
2023-01-20T19:48:57.469Z,21.00
2023-01-20T19:51:26.484Z,21.10
2023-01-20T19:53:57.949Z,20.10
2023-01-20T19:56:28.463Z,19.60
2023-01-20T19:59:01.777Z,19.40
2023-01-20T20:01:31.984Z,20.23
2023-01-20T20:04:00.536Z,21.40
2023-01-20T20:06:29.924Z,20.93
2023-01-20T20:09:00.274Z,20.80
2023-01-20T20:11:28.803Z,21.20
2023-01-20T20:13:59.949Z,20.60
2023-01-20T20:16:30.213Z,22.97
2023-01-20T20:18:58.737Z,18.87
2023-01-20T20:21:27.692Z,21.43
2023-01-20T20:23:57.881Z,21.50
2023-01-20T20:26:28.836Z,23.43
2023-01-20T20:28:59.767Z,22.97
2023-01-20T20:31:29.420Z,22.50
2023-01-20T20:33:58.509Z,22.53
2023-01-20T20:36:29.657Z,23.70
2023-01-20T20:38:58.830Z,23.37
2023-01-20T20:41:30.034Z,23.57
2023-01-20T20:44:00.616Z,23.73
2023-01-20T20:46:29.671Z,23.67
2023-01-20T20:48:59.735Z,24.70
2023-01-20T20:51:28.710Z,24.77
2023-01-20T20:53:57.996Z,23.70
2023-01-20T20:56:28.177Z,23.60
2023-01-20T20:59:02.067Z,23.23
2023-01-20T21:01:34.335Z,21.67
2023-01-20T21:04:03.406Z,22.57
2023-01-20T21:06:32.824Z,24.40
2023-01-20T21:09:01.291Z,23.60
2023-01-20T21:11:30.188Z,24.07
2023-01-20T21:13:58.871Z,23.60
2023-01-20T21:16:28.165Z,22.77
2023-01-20T21:18:59.409Z,22.10
2023-01-20T21:21:29.073Z,23.77
2023-01-20T21:23:59.690Z,22.73
2023-01-20T21:26:30.712Z,21.30
2023-01-20T21:29:01.655Z,22.13
2023-01-20T21:31:31.540Z,20.50
2023-01-20T21:34:01.709Z,20.00
2023-01-20T21:36:31.768Z,22.70
2023-01-20T21:39:00.587Z,21.17
2023-01-20T21:41:28.851Z,21.90
2023-01-20T21:44:14.423Z,22.40
2023-01-20T21:46:42.676Z,19.03
2023-01-20T21:49:29.759Z,19.73
2023-01-20T21:52:15.703Z,20.33
2023-01-20T21:54:45.401Z,17.67
2023-01-20T21:57:14.176Z,19.93
2023-01-20T21:59:42.968Z,20.83
2023-01-20T22:02:13.243Z,19.33
2023-01-20T22:04:43.076Z,20.90
2023-01-20T22:07:11.519Z,19.67
2023-01-20T22:09:43.300Z,17.77
2023-01-20T22:12:12.278Z,19.73
2023-01-20T22:14:40.593Z,17.63
2023-01-20T22:17:10.487Z,20.20
2023-01-20T22:19:38.931Z,19.50
2023-01-20T22:22:10.568Z,19.40
2023-01-20T22:24:38.847Z,20.33
2023-01-20T22:27:11.943Z,18.57
2023-01-20T22:29:40.067Z,19.07
2023-01-20T22:32:17.298Z,17.53
2023-01-20T22:34:45.770Z,17.57
2023-01-20T22:37:15.381Z,17.70
2023-01-20T22:39:43.576Z,18.37
2023-01-20T22:42:12.050Z,18.90
2023-01-20T22:44:40.323Z,17.33
2023-01-20T22:47:10.944Z,17.00
2023-01-20T22:49:39.188Z,17.83
2023-01-20T22:52:08.068Z,16.60
2023-01-20T22:54:37.653Z,17.10
2023-01-20T22:57:05.848Z,16.33
2023-01-20T22:59:33.997Z,16.17
2023-01-20T23:02:02.277Z,17.80
2023-01-20T23:04:30.349Z,17.07
2023-01-20T23:06:58.440Z,15.43
2023-01-20T23:09:26.787Z,16.93
2023-01-20T23:11:56.233Z,15.70
2023-01-20T23:14:56.871Z,14.80
2023-01-20T23:17:25.039Z,17.77
2023-01-20T23:19:53.174Z,15.40
2023-01-20T23:22:21.338Z,15.73
2023-01-20T23:24:49.445Z,15.43
2023-01-20T23:27:18.837Z,14.43
2023-01-20T23:29:49.136Z,15.70
2023-01-20T23:32:17.278Z,15.77
2023-01-20T23:34:45.359Z,14.40
2023-01-20T23:37:14.141Z,14.77
2023-01-20T23:39:42.243Z,15.70
2023-01-20T23:42:10.483Z,15.90
2023-01-20T23:44:40.022Z,15.77
2023-01-20T23:47:10.465Z,14.37
2023-01-20T23:49:41.067Z,15.30
2023-01-20T23:52:09.326Z,14.43
2023-01-20T23:54:37.427Z,15.50
2023-01-20T23:57:05.702Z,15.13
2023-01-20T23:59:33.848Z,14.77
